Current Weather

Dupage Airport

Dupage Airport, Illinois (KDPA)

Report from: Monday, May 23, 2022 1:52 AM CDT
Current time: Monday, May 23, 2022 2:56 AM CDT

Nearby weather
Weather history
Weather forecast

Temperature6.1°C (43.0°F)
Wind chill5.1°C (41.3°F)
Dew point3.3°C (37.9°F)
Winds 3 kts (1.5 m/s, 3.5 mph) North (350°)
Visibility10 mi. (16.1 km)
Clouds Sky clear
Altimeter30.35 in.Hg (1028 mB)
Relative humidity82 %
Density altitude-1,450 ft. (-442 m)
Sea-level pressure102.8 kPa (1028 mB, 30.36 in.Hg)
Remarks Automated weather observing station with precipitation discriminator
Flight conditions Visual Meteorological Conditions
Raw dataKDPA 230652Z 35003KT 10SM CLR 06/03 A3035 RMK AO2 SLP280 T00610033
An error has occurred. This application may no longer respond until reloaded. Reload 🗙